Pagina principale
METAR-TAF:

METAR-TAF

Aeroporti :

Aeroporto di Albenga

Albenga, Italia

latitudine: 44-03N, longitudine: 008-07E, altezza: 45 m

Osservazione

Il bollettino è stato emesso 1 ora e 44 minuti fa, alle 17:50 UTC
Vento 5 kt da sud-ovest
Temperature 26°C
Umidità 37%
Pressione 1015 hPa
Visibilità 10 km o più
nessuna nube inferiore a 1500 m e nessun cumulonembo

METAR: LIMG 231750Z 22005KT CAVOK 26/10 Q1015

Ora: 21:34 (19:34 UTC)


TAF: mancante

Osservazioni e previsioni meteorologiche di più di 4000 aeroporti (messaggi METAR e TAF).

Le stazioni disponibili sono rappresentate dai dischi gialli e rossi sulla carta.

Puntare il mouse per vedere il nome della stazione.

Clicca sopra per visualizzare le osservazioni e previsioni meteorologiche.

Per cambiare la mappa : fare clic sui pulsanti verdi con una croce nera per ingrandire, il pulsante verde con un trattino per diminuire, o sulla freccia verde per le mappe adiacenti.


METAR-TAF: